Time;durP1;ratioP1;P1;durP2;ratioP2;P2;SDS_P1;SDS_P2;PMS_P1;PMS_P2;Temp;Humidity;BMP_temperature;BMP_pressure;BME280_temperature;BME280_humidity;BME280_pressure;Samples;Min_cycle;Max_cycle;Signal;HPM_P1;HPM_P2
2022/08/31 00:04:05;;;;;;;3.10;2.47;;;22.20;99.90;;;;;;5073082;28;20081;-58
2022/08/31 00:06:33;;;;;;;2.08;1.98;;;22.20;99.90;;;;;;5072948;28;20131;-53
2022/08/31 00:09:01;;;;;;;2.40;2.30;;;22.10;99.90;;;;;;5073361;28;20471;-58
2022/08/31 00:11:28;;;;;;;2.60;2.40;;;22.10;99.90;;;;;;5073207;28;20029;-58
2022/08/31 00:13:57;;;;;;;2.90;2.70;;;22.20;99.90;;;;;;5073363;28;20024;-58
2022/08/31 00:16:24;;;;;;;2.60;2.40;;;22.20;99.90;;;;;;5073197;28;20032;-57
2022/08/31 00:18:51;;;;;;;3.28;2.97;;;22.10;99.90;;;;;;5072933;28;20078;-57
2022/08/31 00:21:19;;;;;;;2.40;2.20;;;22.10;99.90;;;;;;5073268;28;20024;-57
2022/08/31 00:23:45;;;;;;;2.40;2.13;;;22.00;99.90;;;;;;5073138;28;20024;-60
2022/08/31 00:26:11;;;;;;;2.08;1.98;;;22.00;99.90;;;;;;5073111;28;20426;-58
2022/08/31 00:28:36;;;;;;;2.83;2.40;;;22.00;99.90;;;;;;5072991;28;20112;-56
2022/08/31 00:31:02;;;;;;;2.67;2.15;;;22.00;99.90;;;;;;5073166;28;20470;-56
2022/08/31 00:33:28;;;;;;;2.40;2.30;;;22.00;99.90;;;;;;5072888;28;20471;-58
2022/08/31 00:35:53;;;;;;;2.95;2.75;;;22.00;99.90;;;;;;5072927;28;20397;-57
2022/08/31 00:38:19;;;;;;;2.60;2.40;;;22.00;99.90;;;;;;5073057;28;20021;-55
2022/08/31 00:40:46;;;;;;;1.92;1.73;;;21.90;99.90;;;;;;5072942;28;20025;-55
2022/08/31 00:43:36;;;;;;;2.45;2.25;;;21.90;99.90;;;;;;5072956;28;20021;-57
2022/08/31 00:46:02;;;;;;;2.70;2.50;;;21.90;99.90;;;;;;5068119;28;20398;-58
2022/08/31 00:48:28;;;;;;;2.83;2.63;;;21.90;99.90;;;;;;5076471;28;20024;-55
2022/08/31 00:50:55;;;;;;;3.33;3.10;;;21.90;99.90;;;;;;5076924;28;20025;-58
2022/08/31 00:53:21;;;;;;;3.03;2.83;;;21.70;99.90;;;;;;5077043;28;20109;-54
2022/08/31 00:55:46;;;;;;;2.60;2.40;;;21.70;99.90;;;;;;5076631;28;20083;-57
2022/08/31 00:58:12;;;;;;;2.47;2.38;;;21.70;99.90;;;;;;5076801;28;20025;-57
2022/08/31 01:00:41;;;;;;;2.63;2.42;;;21.80;99.90;;;;;;5076686;28;20386;-58
2022/08/31 01:03:08;;;;;;;2.72;2.50;;;21.80;99.90;;;;;;5076222;28;20111;-58
2022/08/31 01:05:35;;;;;;;2.63;2.47;;;21.80;99.90;;;;;;5076305;28;20078;-58
2022/08/31 01:08:02;;;;;;;2.75;2.55;;;21.80;99.90;;;;;;5076468;28;20029;-56
2022/08/31 01:10:33;;;;;;;2.60;2.40;;;21.80;99.90;;;;;;5076264;28;20025;-58
2022/08/31 01:13:00;;;;;;;2.90;2.70;;;21.70;99.90;;;;;;5076384;28;20019;-58
2022/08/31 01:15:28;;;;;;;2.60;2.40;;;21.70;99.90;;;;;;5076375;28;20096;-56
2022/08/31 01:17:56;;;;;;;3.33;3.10;;;21.70;99.90;;;;;;5076023;28;20033;-56
2022/08/31 01:20:45;;;;;;;3.97;3.55;;;21.60;99.90;;;;;;5076252;28;20104;-57
2022/08/31 01:23:23;;;;;;;3.50;3.20;;;21.40;99.90;;;;;;5075971;28;20078;-55
2022/08/31 01:25:51;;;;;;;3.20;2.90;;;21.40;99.90;;;;;;5076200;28;20024;-55
2022/08/31 01:28:17;;;;;;;3.10;2.90;;;21.40;99.90;;;;;;5076015;28;20471;-58
2022/08/31 01:30:43;;;;;;;3.47;2.38;;;21.40;99.90;;;;;;5075974;28;20033;-58
2022/08/31 01:33:11;;;;;;;3.30;3.08;;;21.40;99.90;;;;;;5076025;28;20379;-58
2022/08/31 01:35:42;;;;;;;3.97;3.00;;;21.50;99.90;;;;;;5075953;28;20081;-57
2022/08/31 01:38:09;;;;;;;3.15;2.95;;;21.40;99.90;;;;;;5076037;28;20084;-57
2022/08/31 01:40:44;;;;;;;2.83;2.63;;;21.40;99.90;;;;;;5075965;28;20078;-57
2022/08/31 01:43:09;;;;;;;2.72;2.53;;;21.40;99.90;;;;;;5075789;28;20087;-57
2022/08/31 01:45:35;;;;;;;2.88;2.67;;;21.40;99.90;;;;;;5067496;28;20020;-59
2022/08/31 01:48:01;;;;;;;3.60;3.30;;;21.40;99.90;;;;;;5075726;28;20021;-57
2022/08/31 01:50:26;;;;;;;2.58;2.35;;;21.40;99.90;;;;;;5075591;28;20024;-55
2022/08/31 01:52:52;;;;;;;2.72;2.53;;;21.30;99.90;;;;;;5075617;28;20020;-53
2022/08/31 01:55:18;;;;;;;2.60;2.40;;;21.30;99.90;;;;;;5075447;28;20031;-57
2022/08/31 01:57:43;;;;;;;1.92;1.83;;;21.30;99.90;;;;;;5075564;28;20108;-56
2022/08/31 02:00:09;;;;;;;1.92;1.83;;;21.30;99.90;;;;;;5075259;28;20071;-58
2022/08/31 02:02:35;;;;;;;2.50;2.30;;;21.30;99.90;;;;;;5067466;28;20036;-57
2022/08/31 02:05:01;;;;;;;3.20;3.00;;;21.30;99.90;;;;;;5075469;28;20025;-58
2022/08/31 02:07:27;;;;;;;2.78;2.58;;;21.30;99.90;;;;;;5075085;28;20402;-58
2022/08/31 02:09:53;;;;;;;2.92;2.67;;;21.30;99.90;;;;;;5075471;28;20104;-58
2022/08/31 02:12:19;;;;;;;3.30;2.97;;;21.20;99.90;;;;;;5075335;28;20379;-55
2022/08/31 02:14:44;;;;;;;2.80;2.50;;;21.20;99.90;;;;;;5074887;28;20479;-57
2022/08/31 02:17:10;;;;;;;2.50;2.30;;;21.10;99.90;;;;;;5075342;28;20024;-57
2022/08/31 02:19:35;;;;;;;2.83;2.60;;;21.10;99.90;;;;;;5075177;28;20070;-56
2022/08/31 02:22:01;;;;;;;2.80;2.60;;;21.10;99.90;;;;;;5075068;28;20356;-57
2022/08/31 02:24:27;;;;;;;2.38;2.17;;;21.10;99.90;;;;;;5074949;28;20016;-53
2022/08/31 02:26:53;;;;;;;2.55;2.05;;;21.20;99.90;;;;;;5075216;28;20115;-55
2022/08/31 02:29:18;;;;;;;1.90;1.80;;;21.20;99.90;;;;;;5074764;28;20428;-54
2022/08/31 02:31:44;;;;;;;2.90;2.28;;;21.20;99.90;;;;;;5074797;28;20032;-57
2022/08/31 02:34:10;;;;;;;2.70;2.50;;;21.30;99.90;;;;;;5074862;28;20018;-57
2022/08/31 02:36:36;;;;;;;2.33;2.13;;;21.30;99.90;;;;;;5074806;28;20059;-57
2022/08/31 02:39:01;;;;;;;2.53;2.25;;;21.30;99.90;;;;;;5074696;28;20024;-57
2022/08/31 02:41:27;;;;;;;3.35;2.83;;;21.20;99.90;;;;;;5074668;28;20016;-57
2022/08/31 02:43:53;;;;;;;3.85;2.70;;;21.20;99.90;;;;;;5090122;28;20422;-59
2022/08/31 02:46:19;;;;;;;2.58;2.38;;;21.20;99.90;;;;;;5074491;28;20021;-58
2022/08/31 02:48:44;;;;;;;2.75;2.55;;;21.20;99.90;;;;;;5074466;28;20028;-59
2022/08/31 02:51:11;;;;;;;2.00;1.90;;;21.20;99.90;;;;;;5074577;28;20432;-57
2022/08/31 02:53:37;;;;;;;2.08;1.98;;;21.20;99.90;;;;;;5074346;28;20032;-58
2022/08/31 02:56:06;;;;;;;2.10;2.00;;;21.20;99.90;;;;;;5074425;28;20035;-55
2022/08/31 02:58:33;;;;;;;3.20;2.50;;;21.20;99.90;;;;;;5074188;28;20025;-55
2022/08/31 03:00:58;;;;;;;2.90;2.70;;;21.10;99.90;;;;;;5074222;28;20438;-58
2022/08/31 03:03:24;;;;;;;2.25;1.98;;;21.10;99.90;;;;;;5074194;28;20060;-58
2022/08/31 03:05:50;;;;;;;2.85;2.65;;;21.10;99.90;;;;;;5074142;28;20049;-55
2022/08/31 03:08:16;;;;;;;3.00;2.80;;;21.10;99.90;;;;;;5073169;28;20429;-55
2022/08/31 03:10:42;;;;;;;2.10;2.00;;;21.00;99.90;;;;;;5074371;28;20020;-57
2022/08/31 03:13:07;;;;;;;2.20;2.10;;;21.00;99.90;;;;;;5073878;28;20028;-56
2022/08/31 03:15:33;;;;;;;2.50;2.40;;;21.00;99.90;;;;;;5074299;28;20025;-57
2022/08/31 03:17:59;;;;;;;2.85;2.65;;;21.00;99.90;;;;;;5073933;28;20028;-57
2022/08/31 03:20:26;;;;;;;2.85;2.47;;;21.00;99.90;;;;;;5074036;28;20028;-54
2022/08/31 03:22:52;;;;;;;2.53;2.33;;;21.00;99.90;;;;;;5073934;28;20023;-58
2022/08/31 03:25:18;;;;;;;1.88;1.77;;;21.00;99.90;;;;;;5073935;28;20382;-53
2022/08/31 03:27:44;;;;;;;2.25;2.15;;;21.00;99.90;;;;;;5073544;28;20172;-55
2022/08/31 03:30:14;;;;;;;1.80;1.70;;;21.00;99.90;;;;;;5073779;28;20099;-56
2022/08/31 03:32:40;;;;;;;2.38;2.03;;;20.90;99.90;;;;;;5073580;28;20020;-55
2022/08/31 03:35:07;;;;;;;2.40;2.30;;;20.90;99.90;;;;;;5073775;28;20024;-57
2022/08/31 03:37:33;;;;;;;2.65;2.45;;;20.90;99.90;;;;;;5073736;28;20470;-57
2022/08/31 03:39:59;;;;;;;2.17;2.08;;;20.90;99.90;;;;;;5073534;28;20028;-59
2022/08/31 03:42:26;;;;;;;2.40;2.20;;;20.80;99.90;;;;;;5073495;28;20031;-57
2022/08/31 03:44:52;;;;;;;2.35;2.22;;;20.80;99.90;;;;;;5073581;28;20052;-58
2022/08/31 03:47:18;;;;;;;2.90;2.70;;;20.80;99.90;;;;;;5073558;28;20056;-59
2022/08/31 03:49:44;;;;;;;2.83;2.65;;;20.70;99.90;;;;;;5073522;28;20024;-57
2022/08/31 03:52:10;;;;;;;2.95;2.75;;;20.70;99.90;;;;;;5073439;28;20021;-57
2022/08/31 03:54:36;;;;;;;2.30;2.10;;;20.60;99.90;;;;;;5073293;28;20052;-58
2022/08/31 03:57:04;;;;;;;2.83;2.08;;;20.60;99.90;;;;;;5073204;28;20033;-58
2022/08/31 03:59:30;;;;;;;2.38;2.17;;;20.70;99.90;;;;;;5073423;28;20020;-59
2022/08/31 04:01:55;;;;;;;2.83;2.63;;;20.60;99.90;;;;;;5073351;28;20513;-56
2022/08/31 04:04:21;;;;;;;2.20;2.10;;;20.70;99.90;;;;;;5073301;28;20064;-56
2022/08/31 04:06:47;;;;;;;2.45;2.25;;;20.60;99.90;;;;;;5072940;28;20048;-55
2022/08/31 04:09:14;;;;;;;3.03;2.33;;;20.60;99.90;;;;;;5073276;28;20493;-56
2022/08/31 04:11:42;;;;;;;2.53;2.20;;;20.60;99.90;;;;;;5088498;28;20433;-57
2022/08/31 04:14:08;;;;;;;2.03;1.92;;;20.60;99.90;;;;;;5073477;28;20028;-58
2022/08/31 04:16:35;;;;;;;2.28;2.08;;;20.60;99.90;;;;;;5073246;28;20434;-55
2022/08/31 04:19:01;;;;;;;2.40;2.10;;;20.60;99.90;;;;;;5072855;28;20041;-55
2022/08/31 04:21:31;;;;;;;2.25;2.05;;;20.60;99.90;;;;;;5073181;28;20435;-56
2022/08/31 04:23:59;;;;;;;2.92;2.72;;;20.60;99.90;;;;;;5073039;28;20052;-57
2022/08/31 04:26:33;;;;;;;3.15;2.58;;;20.60;99.90;;;;;;5072848;28;20091;-55
2022/08/31 04:28:59;;;;;;;3.28;2.70;;;20.60;99.90;;;;;;5073109;28;20036;-58
2022/08/31 04:31:26;;;;;;;2.90;2.53;;;20.60;99.90;;;;;;5072992;28;20130;-57
2022/08/31 04:33:52;;;;;;;2.83;2.63;;;20.50;99.90;;;;;;5073046;28;20025;-55
2022/08/31 04:36:23;;;;;;;3.50;3.20;;;20.60;99.90;;;;;;5073228;28;20031;-56
2022/08/31 04:38:51;;;;;;;3.35;3.05;;;20.60;99.90;;;;;;5072688;28;20024;-57
2022/08/31 04:41:20;;;;;;;3.00;2.80;;;20.60;99.90;;;;;;5073014;28;20433;-57
2022/08/31 04:43:48;;;;;;;2.60;2.40;;;20.60;99.90;;;;;;5072996;28;20090;-58
2022/08/31 04:46:15;;;;;;;2.60;2.40;;;20.70;99.90;;;;;;5072761;28;20101;-54
2022/08/31 04:48:41;;;;;;;2.72;2.30;;;20.70;99.90;;;;;;5072924;28;20456;-57
2022/08/31 04:51:11;;;;;;;3.78;3.47;;;20.70;99.90;;;;;;5072841;28;20482;-55
2022/08/31 04:53:37;;;;;;;4.15;3.38;;;20.70;99.90;;;;;;5072491;28;20478;-55
2022/08/31 04:56:13;;;;;;;3.08;2.85;;;20.80;99.90;;;;;;5072833;28;20428;-59
2022/08/31 04:58:48;;;;;;;2.97;2.78;;;20.80;99.90;;;;;;5072742;28;20161;-56
2022/08/31 05:01:17;;;;;;;3.22;2.92;;;20.80;99.90;;;;;;5072782;28;20051;-56
2022/08/31 05:03:43;;;;;;;3.00;2.80;;;20.80;99.90;;;;;;5076460;28;20467;-57
2022/08/31 05:06:15;;;;;;;3.40;3.10;;;20.80;99.90;;;;;;5092375;28;20386;-57
2022/08/31 05:08:41;;;;;;;4.13;3.40;;;20.90;99.90;;;;;;5073453;28;20051;-58
2022/08/31 05:11:15;;;;;;;3.17;2.83;;;20.90;99.90;;;;;;5092688;28;20105;-56
2022/08/31 05:13:41;;;;;;;3.83;3.13;;;20.90;99.90;;;;;;5092600;28;20095;-58
2022/08/31 05:16:09;;;;;;;3.67;3.38;;;21.00;99.90;;;;;;5092833;28;20485;-58
2022/08/31 05:18:40;;;;;;;2.92;2.72;;;21.00;99.90;;;;;;5092720;28;20032;-56
2022/08/31 05:21:15;;;;;;;3.72;3.40;;;21.00;99.90;;;;;;5092248;28;20102;-58
2022/08/31 05:23:42;;;;;;;4.20;3.90;;;21.00;99.90;;;;;;5091738;28;20064;-57
2022/08/31 05:26:08;;;;;;;4.47;4.07;;;21.00;99.90;;;;;;5090954;28;20379;-58
2022/08/31 05:28:35;;;;;;;6.38;5.10;;;21.10;99.90;;;;;;5090927;28;20111;-57
2022/08/31 05:31:02;;;;;;;4.20;3.80;;;21.10;99.90;;;;;;5092587;28;20024;-55
2022/08/31 05:33:28;;;;;;;4.10;3.80;;;21.10;99.90;;;;;;5093425;28;20039;-57
2022/08/31 05:35:55;;;;;;;5.47;4.50;;;21.20;99.90;;;;;;5076692;28;20101;-56
2022/08/31 05:38:20;;;;;;;4.82;4.40;;;21.20;99.90;;;;;;5073316;28;20513;-56
2022/08/31 05:40:53;;;;;;;6.10;5.10;;;21.20;99.90;;;;;;5074702;28;20017;-56
2022/08/31 05:43:20;;;;;;;5.57;5.05;;;21.30;99.90;;;;;;5085300;28;20103;-57
2022/08/31 05:45:46;;;;;;;5.05;4.60;;;21.30;99.90;;;;;;5081133;28;20032;-57
2022/08/31 05:48:12;;;;;;;5.15;4.60;;;21.40;99.90;;;;;;5075548;28;20039;-56
2022/08/31 05:50:37;;;;;;;4.82;4.28;;;21.50;99.90;;;;;;5075528;28;20024;-56
2022/08/31 05:53:03;;;;;;;4.85;4.35;;;21.60;99.90;;;;;;5072741;28;20024;-56
2022/08/31 05:55:30;;;;;;;5.30;4.80;;;21.70;99.90;;;;;;5073722;28;20021;-61
2022/08/31 05:57:56;;;;;;;4.97;4.47;;;21.80;99.90;;;;;;5076070;28;20352;-55
2022/08/31 06:00:22;;;;;;;5.18;4.40;;;21.90;99.90;;;;;;5082243;28;20030;-57
2022/08/31 06:02:47;;;;;;;6.82;6.05;;;22.10;99.90;;;;;;5084809;28;20027;-55
2022/08/31 06:05:13;;;;;;;5.97;5.20;;;22.30;99.90;;;;;;5091888;28;20047;-57
2022/08/31 06:07:39;;;;;;;5.35;4.85;;;22.30;99.90;;;;;;5086682;28;20048;-56
2022/08/31 06:10:05;;;;;;;5.00;4.60;;;22.80;99.90;;;;;;5080326;28;20039;-57
2022/08/31 06:12:33;;;;;;;5.30;4.70;;;25.00;99.90;;;;;;5082526;28;20034;-57
2022/08/31 06:15:00;;;;;;;5.00;4.47;;;27.10;99.90;;;;;;5064054;28;20475;-57
2022/08/31 06:17:27;;;;;;;4.85;4.38;;;28.80;99.90;;;;;;5081238;28;20119;-56
2022/08/31 06:19:54;;;;;;;4.53;4.13;;;30.20;97.90;;;;;;5076481;28;20103;-57
2022/08/31 06:22:20;;;;;;;4.30;3.90;;;31.30;94.40;;;;;;5090452;28;20028;-57
2022/08/31 06:24:46;;;;;;;3.97;3.67;;;31.90;92.60;;;;;;5091896;28;20121;-55
2022/08/31 06:27:11;;;;;;;4.00;3.70;;;32.60;90.80;;;;;;5091965;28;20431;-52
2022/08/31 06:29:37;;;;;;;4.07;3.78;;;33.20;87.70;;;;;;5091291;28;20367;-57
2022/08/31 06:32:06;;;;;;;5.00;4.50;;;33.90;84.20;;;;;;5091047;28;20021;-57
2022/08/31 06:34:33;;;;;;;4.30;4.00;;;34.20;79.30;;;;;;5091581;28;20076;-55
2022/08/31 06:36:59;;;;;;;4.00;3.70;;;34.20;79.00;;;;;;5085410;28;20115;-53
2022/08/31 06:39:25;;;;;;;3.70;3.50;;;34.30;77.30;;;;;;5091379;28;20111;-56
2022/08/31 06:41:54;;;;;;;3.50;3.22;;;34.60;75.80;;;;;;5093758;28;20020;-54
2022/08/31 06:44:22;;;;;;;3.88;3.58;;;35.10;75.30;;;;;;5093138;28;20474;-59
2022/08/31 06:55:39;;;;;;;2.78;2.58;;;37.00;68.20;;;;;;5010895;28;20048;-72
2022/08/31 06:58:05;;;;;;;2.65;2.45;;;37.40;65.40;;;;;;5011712;28;20109;-72
2022/08/31 07:00:32;;;;;;;3.00;2.80;;;37.60;62.90;;;;;;5026222;28;20049;-73
2022/08/31 07:03:21;;;;;;;2.95;2.75;;;37.80;62.70;;;;;;4997607;28;20040;-71
2022/08/31 07:05:44;;;;;;;2.65;2.45;;;38.10;61.60;;;;;;5007299;28;20037;-72
2022/08/31 07:08:10;;;;;;;3.33;3.03;;;38.50;60.00;;;;;;5001398;28;20101;-72
2022/08/31 07:10:36;;;;;;;3.05;2.85;;;38.40;58.00;;;;;;4999977;28;20029;-74
2022/08/31 07:13:02;;;;;;;4.80;4.28;;;38.50;58.70;;;;;;4982183;28;20031;-73
2022/08/31 07:15:30;;;;;;;7.63;6.28;;;38.70;56.80;;;;;;4987698;28;20380;-72
2022/08/31 07:17:55;;;;;;;9.95;5.43;;;38.00;56.30;;;;;;4982506;28;20378;-72
2022/08/31 07:20:21;;;;;;;5.00;4.47;;;37.40;57.10;;;;;;5000834;28;20088;-70
2022/08/31 07:22:47;;;;;;;25.70;6.55;;;37.80;56.80;;;;;;5000577;28;20467;-71
2022/08/31 07:25:13;;;;;;;5.30;4.75;;;37.90;55.00;;;;;;5001872;28;20033;-72
2022/08/31 07:27:38;;;;;;;5.57;4.80;;;37.60;56.60;;;;;;4985131;28;20088;-73
2022/08/31 07:30:05;;;;;;;4.82;4.43;;;37.80;55.90;;;;;;5011373;28;20037;-73
2022/08/31 07:32:30;;;;;;;4.40;3.95;;;38.10;55.40;;;;;;4991896;28;20510;-73
2022/08/31 07:34:56;;;;;;;7.93;6.15;;;38.50;55.00;;;;;;4982374;28;20038;-71
2022/08/31 07:42:50;;;;;;;5.88;4.75;;;38.00;54.00;;;;;;5006512;28;20100;-69
2022/08/31 07:45:21;;;;;;;5.50;4.90;;;38.20;56.00;;;;;;5009474;28;20234;-72
2022/08/31 07:47:54;;;;;;;6.97;5.10;;;38.60;53.80;;;;;;5010457;28;20041;-74
2022/08/31 07:50:22;;;;;;;6.40;5.25;;;38.70;56.20;;;;;;4991987;28;20038;-74
2022/08/31 07:52:52;;;;;;;7.72;5.32;;;38.70;54.90;;;;;;4988424;28;20033;-72
2022/08/31 07:55:20;;;;;;;6.45;5.57;;;38.80;53.20;;;;;;4992156;28;20046;-72
2022/08/31 07:57:46;;;;;;;7.72;5.40;;;38.70;53.90;;;;;;4978296;28;20038;-73
2022/08/31 08:00:27;;;;;;;6.63;5.32;;;38.50;54.00;;;;;;4985567;28;20077;-71
2022/08/31 08:02:53;;;;;;;5.97;5.28;;;38.80;53.40;;;;;;4992711;28;20034;-71
2022/08/31 08:05:22;;;;;;;5.80;5.10;;;39.30;53.00;;;;;;4974624;28;20492;-70
2022/08/31 08:07:52;;;;;;;5.57;4.97;;;39.50;52.80;;;;;;4988963;28;20416;-72
2022/08/31 08:10:20;;;;;;;7.18;5.22;;;39.80;53.50;;;;;;4979423;28;20030;-72
2022/08/31 08:12:55;;;;;;;8.45;5.22;;;39.80;51.40;;;;;;4991465;28;20034;-71
2022/08/31 08:15:22;;;;;;;9.48;6.50;;;39.70;52.40;;;;;;4974128;28;20034;-72
2022/08/31 08:17:48;;;;;;;8.48;5.50;;;39.70;51.20;;;;;;4988980;28;20454;-71
2022/08/31 08:20:14;;;;;;;5.85;4.72;;;39.20;52.00;;;;;;4992454;28;20114;-72
2022/08/31 08:22:42;;;;;;;5.32;4.82;;;39.50;53.20;;;;;;4992441;28;20346;-72
2022/08/31 08:25:09;;;;;;;4.70;4.30;;;39.80;51.70;;;;;;4971182;28;20042;-71
2022/08/31 08:27:35;;;;;;;8.85;5.20;;;40.10;52.20;;;;;;4990486;28;20113;-71
2022/08/31 08:30:01;;;;;;;6.22;5.07;;;40.40;51.40;;;;;;4986134;28;20128;-70
2022/08/31 08:32:30;;;;;;;5.40;4.88;;;40.50;51.40;;;;;;4961335;28;20101;-69
2022/08/31 08:34:56;;;;;;;7.35;5.43;;;40.30;51.10;;;;;;4981362;28;20031;-68
2022/08/31 08:37:22;;;;;;;4.97;4.40;;;40.30;51.00;;;;;;4980562;28;20033;-68
2022/08/31 08:39:48;;;;;;;5.95;4.78;;;40.30;52.50;;;;;;4989876;28;20027;-67
2022/08/31 08:42:15;;;;;;;9.88;5.35;;;40.20;52.00;;;;;;4989202;28;20472;-68
2022/08/31 08:44:42;;;;;;;11.77;6.07;;;39.90;49.80;;;;;;4980070;28;20041;-68
2022/08/31 08:47:17;;;;;;;7.60;5.45;;;38.80;50.50;;;;;;4973170;28;20489;-68
2022/08/31 08:49:48;;;;;;;6.78;5.10;;;38.40;51.40;;;;;;4986485;28;20034;-68
2022/08/31 08:52:31;;;;;;;5.82;4.05;;;38.30;50.70;;;;;;4992522;28;20037;-69
2022/08/31 08:55:00;;;;;;;;;;;37.80;51.80;;;;;;4991595;28;20562;-69
2022/08/31 08:57:30;;;;;;;5.30;3.75;;;37.40;51.80;;;;;;4990074;28;19910;-69
2022/08/31 08:59:59;;;;;;;5.40;3.97;;;37.40;53.00;;;;;;4987389;28;20368;-68
2022/08/31 09:02:54;;;;;;;5.97;4.35;;;37.50;53.00;;;;;;4985258;28;20034;-67
2022/08/31 09:05:37;;;;;;;4.20;3.85;;;37.40;54.50;;;;;;4965156;28;20528;-67
2022/08/31 09:08:22;;;;;;;5.15;4.25;;;36.80;54.60;;;;;;4988313;28;20037;-67
2022/08/31 09:11:16;;;;;;;4.18;3.80;;;36.60;55.30;;;;;;4996744;28;20038;-69
2022/08/31 09:14:19;;;;;;;4.78;3.50;;;36.70;53.20;;;;;;4995725;28;20105;-67
2022/08/31 09:16:55;;;;;;;4.18;3.17;;;36.50;53.80;;;;;;4965358;28;20058;-67
2022/08/31 09:19:20;;;;;;;3.75;3.45;;;36.60;53.50;;;;;;4990403;28;20415;-68
2022/08/31 09:21:55;;;;;;;5.15;3.70;;;36.70;53.50;;;;;;4993188;28;20027;-68
2022/08/31 09:24:26;;;;;;;3.88;3.47;;;36.80;53.50;;;;;;4994005;28;20129;-69
2022/08/31 09:26:55;;;;;;;4.32;3.90;;;36.50;54.00;;;;;;4994767;28;20484;-68
2022/08/31 09:29:27;;;;;;;3.70;3.28;;;36.30;55.00;;;;;;4995745;28;20425;-66
2022/08/31 09:32:06;;;;;;;4.25;3.25;;;36.50;55.50;;;;;;4995252;28;20029;-68
2022/08/31 09:34:40;;;;;;;4.07;3.67;;;36.80;55.10;;;;;;4996146;28;20034;-71
2022/08/31 09:37:24;;;;;;;6.57;4.20;;;37.00;54.30;;;;;;4995124;28;20477;-68
2022/08/31 09:39:52;;;;;;;5.88;3.97;;;37.00;54.10;;;;;;4994749;28;20365;-68
2022/08/31 09:42:35;;;;;;;4.10;3.70;;;36.40;52.90;;;;;;4994340;28;20028;-68
2022/08/31 09:45:06;;;;;;;4.15;3.10;;;35.50;56.00;;;;;;4993508;28;20510;-69
2022/08/31 09:47:52;;;;;;;3.70;3.40;;;36.00;55.60;;;;;;4993755;28;20432;-69
2022/08/31 09:50:30;;;;;;;3.70;3.40;;;36.60;55.50;;;;;;4995257;28;20022;-68
2022/08/31 09:56:20;;;;;;;4.32;3.90;;;37.20;53.80;;;;;;5020430;28;20411;-69
2022/08/31 09:59:05;;;;;;;3.80;3.35;;;37.70;53.80;;;;;;5033266;28;20026;-67
2022/08/31 10:01:43;;;;;;;4.10;3.80;;;37.90;52.60;;;;;;5034849;28;20059;-66
2022/08/31 10:04:25;;;;;;;3.75;3.45;;;38.00;53.30;;;;;;5034946;28;20107;-67
2022/08/31 10:06:51;;;;;;;3.95;3.55;;;37.90;56.20;;;;;;5022484;28;20059;-68
2022/08/31 10:09:38;;;;;;;4.07;3.67;;;37.80;52.40;;;;;;5031303;28;20474;-67
2022/08/31 10:12:08;;;;;;;3.95;3.65;;;37.90;53.70;;;;;;5031488;28;20029;-67
2022/08/31 10:15:09;;;;;;;3.70;3.40;;;38.20;52.40;;;;;;5031444;28;20472;-67
2022/08/31 10:17:56;;;;;;;3.27;3.07;;;38.40;52.70;;;;;;5000017;28;20538;-67
2022/08/31 10:20:30;;;;;;;3.40;3.10;;;38.30;51.20;;;;;;5011169;28;20255;-67
2022/08/31 10:23:26;;;;;;;4.13;3.60;;;38.00;50.90;;;;;;5029489;28;20028;-67
2022/08/31 10:25:59;;;;;;;6.15;4.20;;;37.30;52.30;;;;;;5002264;28;20371;-68
2022/08/31 10:28:35;;;;;;;6.25;5.05;;;36.70;53.50;;;;;;5032252;28;20048;-68
2022/08/31 10:31:12;;;;;;;5.80;4.03;;;35.90;55.10;;;;;;5032889;28;20021;-67
2022/08/31 10:37:06;;;;;;;4.75;4.35;;;35.30;58.60;;;;;;5024268;28;20044;-66
2022/08/31 10:40:03;;;;;;;4.22;3.92;;;35.30;58.60;;;;;;5026917;28;20033;-68
2022/08/31 10:42:36;;;;;;;5.57;4.20;;;35.50;57.70;;;;;;5020785;28;20037;-68
2022/08/31 10:45:17;;;;;;;4.30;3.90;;;35.80;57.50;;;;;;5024382;28;20033;-68
2022/08/31 10:47:47;;;;;;;4.55;4.15;;;36.30;58.50;;;;;;5031765;28;20026;-69
2022/08/31 10:50:43;;;;;;;4.38;4.07;;;36.30;58.10;;;;;;5014465;28;20034;-69
2022/08/31 10:53:51;;;;;;;3.58;3.38;;;36.00;56.30;;;;;;4994759;28;20038;-68
2022/08/31 10:56:43;;;;;;;3.45;3.25;;;35.50;56.60;;;;;;5026049;28;20069;-68
2022/08/31 10:59:23;;;;;;;3.15;2.90;;;35.10;56.90;;;;;;5022710;28;20061;-68
2022/08/31 11:02:24;;;;;;;2.70;2.55;;;34.80;57.80;;;;;;5029637;28;20230;-70
2022/08/31 11:05:02;;;;;;;2.55;2.35;;;34.60;57.50;;;;;;4995926;28;20065;-68
2022/08/31 11:07:27;;;;;;;2.85;2.40;;;34.30;57.10;;;;;;5028900;28;20399;-70
2022/08/31 11:10:28;;;;;;;2.40;2.30;;;33.90;57.30;;;;;;5028507;28;20037;-68
2022/08/31 11:12:59;;;;;;;2.22;2.13;;;33.70;58.80;;;;;;5018740;28;20479;-68
2022/08/31 11:15:44;;;;;;;2.38;2.15;;;33.50;59.90;;;;;;5032707;28;20014;-71
2022/08/31 11:18:21;;;;;;;2.20;2.10;;;33.40;58.50;;;;;;5032352;28;20037;-70
2022/08/31 11:20:47;;;;;;;1.95;1.85;;;33.40;60.20;;;;;;5028239;28;20030;-70
2022/08/31 11:23:39;;;;;;;2.10;2.00;;;33.80;59.90;;;;;;5021119;28;20036;-68
2022/08/31 11:26:32;;;;;;;2.53;2.08;;;34.30;59.80;;;;;;5026682;28;20129;-70
2022/08/31 11:29:13;;;;;;;2.17;2.00;;;34.50;59.80;;;;;;5029344;28;20430;-70
2022/08/31 11:31:39;;;;;;;2.20;2.00;;;34.10;57.40;;;;;;5032744;28;20025;-68
2022/08/31 11:34:24;;;;;;;1.77;1.67;;;33.90;58.60;;;;;;5033006;28;20101;-67
2022/08/31 11:37:02;;;;;;;2.20;2.05;;;33.90;60.00;;;;;;5032830;28;20017;-67
2022/08/31 11:39:34;;;;;;;2.03;1.83;;;33.60;58.30;;;;;;4996952;28;20075;-68
2022/08/31 11:42:11;;;;;;;2.08;1.98;;;33.20;58.70;;;;;;5031187;28;20071;-69
2022/08/31 11:44:38;;;;;;;1.77;1.67;;;33.10;59.30;;;;;;5031778;28;20067;-67
2022/08/31 11:47:08;;;;;;;1.60;1.50;;;33.00;58.40;;;;;;5022067;28;20099;-69
2022/08/31 11:49:39;;;;;;;1.80;1.70;;;33.10;58.70;;;;;;5029120;28;20057;-69
2022/08/31 11:52:13;;;;;;;2.55;1.63;;;33.10;58.90;;;;;;5029394;28;20103;-67
2022/08/31 11:54:41;;;;;;;1.52;1.42;;;33.10;59.10;;;;;;5019618;28;20129;-69
2022/08/31 11:57:24;;;;;;;2.10;1.90;;;33.00;58.60;;;;;;5020659;28;20069;-68
2022/08/31 11:59:51;;;;;;;1.80;1.70;;;32.90;58.60;;;;;;5009651;28;20111;-69
2022/08/31 12:02:21;;;;;;;1.80;1.65;;;32.80;59.50;;;;;;5029187;28;20033;-70
2022/08/31 12:04:52;;;;;;;1.60;1.50;;;32.50;57.40;;;;;;5011300;28;20491;-70
2022/08/31 12:07:27;;;;;;;1.60;1.50;;;32.40;58.60;;;;;;5030579;28;20037;-69
2022/08/31 12:10:16;;;;;;;1.70;1.60;;;32.60;59.00;;;;;;5029785;28;20029;-67
2022/08/31 12:13:06;;;;;;;1.92;1.80;;;32.70;59.60;;;;;;5031211;28;20124;-67
2022/08/31 12:15:40;;;;;;;2.15;1.77;;;32.60;58.60;;;;;;5031619;28;20018;-70
2022/08/31 12:18:40;;;;;;;2.25;1.90;;;32.60;60.10;;;;;;5014880;28;20032;-69
2022/08/31 12:24:08;;;;;;;2.35;2.15;;;32.50;63.60;;;;;;5031702;28;20099;-70
2022/08/31 12:26:56;;;;;;;1.73;1.63;;;32.40;60.30;;;;;;5032974;28;20047;-69
2022/08/31 12:29:33;;;;;;;1.40;1.40;;;32.40;59.90;;;;;;5032746;28;20040;-69
2022/08/31 12:32:12;;;;;;;1.90;1.70;;;32.90;62.20;;;;;;5032919;28;20538;-70
2022/08/31 12:35:02;;;;;;;2.13;1.75;;;33.30;62.90;;;;;;5031220;28;20017;-69
2022/08/31 12:37:30;;;;;;;1.65;1.55;;;33.70;60.70;;;;;;5030431;28;20025;-69
2022/08/31 12:40:09;;;;;;;1.98;1.88;;;34.00;59.30;;;;;;5031078;28;20037;-68
2022/08/31 12:42:49;;;;;;;1.90;1.80;;;34.20;62.00;;;;;;5033981;28;20423;-68
2022/08/31 12:45:16;;;;;;;2.25;1.95;;;34.60;58.80;;;;;;5034813;28;20021;-69
2022/08/31 12:48:20;;;;;;;1.80;1.70;;;34.90;56.60;;;;;;5035404;28;20028;-67
2022/08/31 12:51:11;;;;;;;3.05;1.63;;;35.10;56.80;;;;;;5036296;28;20021;-67
2022/08/31 12:53:51;;;;;;;1.98;1.83;;;35.70;57.50;;;;;;5036548;28;20029;-69
2022/08/31 12:56:22;;;;;;;1.70;1.60;;;36.10;57.10;;;;;;5036711;28;20129;-67
2022/08/31 12:58:59;;;;;;;1.50;1.40;;;36.00;56.30;;;;;;5036740;28;20040;-70
2022/08/31 13:01:26;;;;;;;1.73;1.63;;;36.30;55.30;;;;;;5036874;28;20056;-68
2022/08/31 13:03:58;;;;;;;1.95;1.85;;;36.50;55.80;;;;;;5036707;28;20021;-67
2022/08/31 13:06:26;;;;;;;1.80;1.70;;;36.60;52.50;;;;;;5036631;28;20040;-67
2022/08/31 13:08:53;;;;;;;1.70;1.60;;;36.40;54.00;;;;;;5036481;28;20064;-69
2022/08/31 13:11:30;;;;;;;1.77;1.55;;;36.50;51.60;;;;;;5036510;28;20029;-68
2022/08/31 13:14:23;;;;;;;1.30;1.20;;;36.20;52.90;;;;;;5036551;28;20494;-67
2022/08/31 13:16:49;;;;;;;1.70;1.60;;;36.40;55.00;;;;;;5036422;28;20025;-67
2022/08/31 13:19:28;;;;;;;1.60;1.50;;;36.80;53.90;;;;;;5036399;28;20083;-68
2022/08/31 13:22:07;;;;;;;1.80;1.70;;;36.80;53.40;;;;;;5018318;28;20026;-70
2022/08/31 13:24:40;;;;;;;1.50;1.40;;;36.80;53.90;;;;;;5036411;28;20021;-69
2022/08/31 13:27:18;;;;;;;2.35;1.45;;;36.40;53.30;;;;;;5036171;28;20021;-69
2022/08/31 13:29:44;;;;;;;2.72;2.22;;;36.10;54.40;;;;;;5036360;28;20028;-68
2022/08/31 13:32:13;;;;;;;2.33;2.13;;;35.70;53.80;;;;;;5036257;28;20037;-68
2022/08/31 13:34:40;;;;;;;1.60;1.50;;;35.40;53.20;;;;;;5036062;28;20146;-70